sensor_id;sensor_type;location;lat;lon;timestamp;pressure;altitude;pressure_sealevel;temperature;humidity
40592;BME280;26301;42.832;23.918;2022-12-07T00:00:57;93081.75;;;2.91;100.00
40592;BME280;26301;42.832;23.918;2022-12-07T00:03:29;93060.72;;;2.83;100.00
40592;BME280;26301;42.832;23.918;2022-12-07T00:05:57;93067.41;;;2.84;100.00
40592;BME280;26301;42.832;23.918;2022-12-07T00:08:23;93077.66;;;2.90;100.00
40592;BME280;26301;42.832;23.918;2022-12-07T00:10:48;93047.78;;;2.78;100.00
40592;BME280;26301;42.832;23.918;2022-12-07T00:13:14;93031.22;;;2.67;100.00
40592;BME280;26301;42.832;23.918;2022-12-07T00:15:39;93067.06;;;2.93;100.00
40592;BME280;26301;42.832;23.918;2022-12-07T00:18:05;93073.34;;;2.91;100.00
40592;BME280;26301;42.832;23.918;2022-12-07T00:20:31;93068.06;;;2.92;100.00
40592;BME280;26301;42.832;23.918;2022-12-07T00:22:57;93078.28;;;2.99;100.00
40592;BME280;26301;42.832;23.918;2022-12-07T00:25:22;93068.63;;;2.94;100.00
40592;BME280;26301;42.832;23.918;2022-12-07T00:27:48;93064.28;;;2.88;100.00
40592;BME280;26301;42.832;23.918;2022-12-07T00:30:14;93062.13;;;2.85;100.00
40592;BME280;26301;42.832;23.918;2022-12-07T00:32:40;93043.59;;;2.70;100.00
40592;BME280;26301;42.832;23.918;2022-12-07T00:35:06;93063.53;;;2.94;100.00
40592;BME280;26301;42.832;23.918;2022-12-07T00:37:31;93066.84;;;2.88;100.00
40592;BME280;26301;42.832;23.918;2022-12-07T00:39:57;93045.78;;;2.73;100.00
40592;BME280;26301;42.832;23.918;2022-12-07T00:42:22;93048.97;;;2.82;100.00
40592;BME280;26301;42.832;23.918;2022-12-07T00:44:48;93071.78;;;2.96;100.00
40592;BME280;26301;42.832;23.918;2022-12-07T00:47:14;93068.59;;;2.88;100.00
40592;BME280;26301;42.832;23.918;2022-12-07T00:49:39;93067.44;;;2.90;100.00
40592;BME280;26301;42.832;23.918;2022-12-07T00:52:05;93064.13;;;2.90;100.00
40592;BME280;26301;42.832;23.918;2022-12-07T00:54:30;93058.78;;;2.85;100.00
40592;BME280;26301;42.832;23.918;2022-12-07T00:56:56;93065.31;;;3.01;100.00
40592;BME280;26301;42.832;23.918;2022-12-07T00:59:22;93021.03;;;2.67;100.00
40592;BME280;26301;42.832;23.918;2022-12-07T01:01:47;93072.97;;;3.01;100.00
40592;BME280;26301;42.832;23.918;2022-12-07T01:04:13;93072.81;;;3.09;100.00
40592;BME280;26301;42.832;23.918;2022-12-07T01:06:39;93029.72;;;2.86;100.00
40592;BME280;26301;42.832;23.918;2022-12-07T01:09:04;93055.69;;;2.96;100.00
40592;BME280;26301;42.832;23.918;2022-12-07T01:11:31;93050.59;;;2.96;100.00
40592;BME280;26301;42.832;23.918;2022-12-07T01:13:58;93029.53;;;2.81;100.00
40592;BME280;26301;42.832;23.918;2022-12-07T01:16:26;93038.97;;;2.87;100.00
40592;BME280;26301;42.832;23.918;2022-12-07T01:18:53;93055.50;;;2.97;100.00
40592;BME280;26301;42.832;23.918;2022-12-07T01:21:25;93041.38;;;2.95;100.00
40592;BME280;26301;42.832;23.918;2022-12-07T01:23:51;92971.31;;;2.49;100.00
40592;BME280;26301;42.832;23.918;2022-12-07T01:26:20;93050.00;;;3.01;100.00
40592;BME280;26301;42.832;23.918;2022-12-07T01:28:46;93045.28;;;2.97;100.00
40592;BME280;26301;42.832;23.918;2022-12-07T01:31:17;93015.44;;;2.91;100.00
40592;BME280;26301;42.832;23.918;2022-12-07T01:33:45;93030.13;;;2.83;100.00
40592;BME280;26301;42.832;23.918;2022-12-07T01:38:40;93017.94;;;2.71;100.00
40592;BME280;26301;42.832;23.918;2022-12-07T01:41:06;93035.06;;;2.91;100.00
40592;BME280;26301;42.832;23.918;2022-12-07T01:43:33;93043.47;;;2.85;100.00
40592;BME280;26301;42.832;23.918;2022-12-07T01:45:59;93040.53;;;2.81;100.00
40592;BME280;26301;42.832;23.918;2022-12-07T01:48:38;93038.13;;;2.73;100.00
40592;BME280;26301;42.832;23.918;2022-12-07T01:51:12;93019.69;;;2.71;100.00
40592;BME280;26301;42.832;23.918;2022-12-07T01:53:42;92919.00;;;2.05;100.00
40592;BME280;26301;42.832;23.918;2022-12-07T01:56:11;93020.50;;;2.78;100.00
40592;BME280;26301;42.832;23.918;2022-12-07T01:58:41;93012.81;;;2.71;100.00
40592;BME280;26301;42.832;23.918;2022-12-07T02:01:06;92977.44;;;2.55;100.00
40592;BME280;26301;42.832;23.918;2022-12-07T02:03:36;92985.31;;;2.60;100.00
40592;BME280;26301;42.832;23.918;2022-12-07T02:06:04;93008.53;;;2.85;100.00
40592;BME280;26301;42.832;23.918;2022-12-07T02:08:30;92990.44;;;2.67;100.00
40592;BME280;26301;42.832;23.918;2022-12-07T02:10:56;93006.19;;;2.84;100.00
40592;BME280;26301;42.832;23.918;2022-12-07T02:13:26;93005.59;;;2.82;100.00
40592;BME280;26301;42.832;23.918;2022-12-07T02:22:07;93004.22;;;2.86;100.00
40592;BME280;26301;42.832;23.918;2022-12-07T02:24:48;93017.19;;;2.91;100.00
40592;BME280;26301;42.832;23.918;2022-12-07T02:35:28;93017.59;;;2.88;100.00
40592;BME280;26301;42.832;23.918;2022-12-07T02:38:18;93003.25;;;2.80;100.00
40592;BME280;26301;42.832;23.918;2022-12-07T02:43:54;93011.47;;;2.75;100.00
40592;BME280;26301;42.832;23.918;2022-12-07T02:46:25;92980.97;;;2.54;100.00
40592;BME280;26301;42.832;23.918;2022-12-07T02:48:52;93008.34;;;2.80;100.00
40592;BME280;26301;42.832;23.918;2022-12-07T02:51:19;93018.16;;;2.83;100.00
40592;BME280;26301;42.832;23.918;2022-12-07T02:53:46;92992.22;;;2.73;100.00
40592;BME280;26301;42.832;23.918;2022-12-07T02:59:07;92990.66;;;2.72;100.00
40592;BME280;26301;42.832;23.918;2022-12-07T03:04:54;93007.13;;;2.76;100.00
40592;BME280;26301;42.832;23.918;2022-12-07T03:07:29;92980.19;;;2.54;100.00
40592;BME280;26301;42.832;23.918;2022-12-07T03:12:48;92997.13;;;2.68;100.00
40592;BME280;26301;42.832;23.918;2022-12-07T03:15:39;93000.63;;;2.67;100.00
40592;BME280;26301;42.832;23.918;2022-12-07T03:18:07;92994.72;;;2.60;100.00
40592;BME280;26301;42.832;23.918;2022-12-07T03:20:35;93012.22;;;2.69;100.00
40592;BME280;26301;42.832;23.918;2022-12-07T03:23:05;93013.22;;;2.68;100.00
40592;BME280;26301;42.832;23.918;2022-12-07T03:25:33;92982.88;;;2.45;100.00
40592;BME280;26301;42.832;23.918;2022-12-07T03:28:03;93021.41;;;2.64;100.00
40592;BME280;26301;42.832;23.918;2022-12-07T03:33:24;93013.53;;;2.59;100.00
40592;BME280;26301;42.832;23.918;2022-12-07T03:38:33;92980.06;;;2.27;100.00
40592;BME280;26301;42.832;23.918;2022-12-07T03:41:09;93007.38;;;2.40;100.00
40592;BME280;26301;42.832;23.918;2022-12-07T03:43:37;93006.63;;;2.46;100.00
40592;BME280;26301;42.832;23.918;2022-12-07T03:51:21;93010.41;;;2.22;100.00
40592;BME280;26301;42.832;23.918;2022-12-07T03:53:54;92978.53;;;2.04;100.00
40592;BME280;26301;42.832;23.918;2022-12-07T03:56:26;93004.34;;;2.23;100.00
40592;BME280;26301;42.832;23.918;2022-12-07T03:58:54;93008.63;;;2.22;100.00
40592;BME280;26301;42.832;23.918;2022-12-07T04:01:19;92895.94;;;1.51;100.00
40592;BME280;26301;42.832;23.918;2022-12-07T04:03:45;92984.88;;;2.15;100.00
40592;BME280;26301;42.832;23.918;2022-12-07T04:06:11;92983.31;;;2.14;100.00
40592;BME280;26301;42.832;23.918;2022-12-07T04:08:36;92967.38;;;2.05;100.00
40592;BME280;26301;42.832;23.918;2022-12-07T04:11:02;92948.28;;;1.88;100.00
40592;BME280;26301;42.832;23.918;2022-12-07T04:13:28;93006.28;;;2.21;100.00
40592;BME280;26301;42.832;23.918;2022-12-07T04:15:53;92966.00;;;2.03;100.00
40592;BME280;26301;42.832;23.918;2022-12-07T04:18:19;92984.75;;;2.23;100.00
40592;BME280;26301;42.832;23.918;2022-12-07T04:20:45;92990.66;;;2.31;100.00
40592;BME280;26301;42.832;23.918;2022-12-07T04:23:11;92990.47;;;2.32;100.00
40592;BME280;26301;42.832;23.918;2022-12-07T04:25:37;92974.34;;;2.25;100.00
40592;BME280;26301;42.832;23.918;2022-12-07T04:28:02;92995.56;;;2.32;100.00
40592;BME280;26301;42.832;23.918;2022-12-07T04:30:28;92960.75;;;2.11;100.00
40592;BME280;26301;42.832;23.918;2022-12-07T04:32:54;92988.69;;;2.26;100.00
40592;BME280;26301;42.832;23.918;2022-12-07T04:35:20;92977.84;;;2.17;100.00
40592;BME280;26301;42.832;23.918;2022-12-07T04:37:46;92969.00;;;2.13;100.00
40592;BME280;26301;42.832;23.918;2022-12-07T04:40:12;92992.97;;;2.25;100.00
40592;BME280;26301;42.832;23.918;2022-12-07T04:42:39;92983.16;;;2.22;100.00
40592;BME280;26301;42.832;23.918;2022-12-07T04:45:05;92988.81;;;2.18;100.00
40592;BME280;26301;42.832;23.918;2022-12-07T04:47:31;92987.38;;;2.02;100.00
40592;BME280;26301;42.832;23.918;2022-12-07T04:49:57;92993.38;;;1.94;100.00
40592;BME280;26301;42.832;23.918;2022-12-07T04:52:23;92948.69;;;1.64;100.00
40592;BME280;26301;42.832;23.918;2022-12-07T04:54:48;92954.78;;;1.63;100.00
40592;BME280;26301;42.832;23.918;2022-12-07T04:57:15;92978.19;;;1.79;100.00
40592;BME280;26301;42.832;23.918;2022-12-07T04:59:40;92992.56;;;1.87;100.00
40592;BME280;26301;42.832;23.918;2022-12-07T05:02:06;93001.38;;;1.91;100.00
40592;BME280;26301;42.832;23.918;2022-12-07T05:04:32;92985.09;;;1.86;100.00
40592;BME280;26301;42.832;23.918;2022-12-07T05:06:57;92986.44;;;1.81;100.00
40592;BME280;26301;42.832;23.918;2022-12-07T05:09:23;92962.50;;;1.76;100.00
40592;BME280;26301;42.832;23.918;2022-12-07T05:11:49;92986.09;;;1.91;100.00
40592;BME280;26301;42.832;23.918;2022-12-07T05:14:17;92967.34;;;1.71;100.00
40592;BME280;26301;42.832;23.918;2022-12-07T05:16:45;92980.03;;;1.92;100.00
40592;BME280;26301;42.832;23.918;2022-12-07T05:19:12;92988.84;;;1.90;100.00
40592;BME280;26301;42.832;23.918;2022-12-07T05:21:38;92985.31;;;1.91;100.00
40592;BME280;26301;42.832;23.918;2022-12-07T05:24:04;92991.34;;;1.83;100.00
40592;BME280;26301;42.832;23.918;2022-12-07T05:26:30;92957.38;;;1.69;100.00
40592;BME280;26301;42.832;23.918;2022-12-07T05:28:56;92978.84;;;1.88;100.00
40592;BME280;26301;42.832;23.918;2022-12-07T05:31:23;92974.50;;;1.82;100.00
40592;BME280;26301;42.832;23.918;2022-12-07T05:33:49;92979.81;;;1.87;100.00
40592;BME280;26301;42.832;23.918;2022-12-07T05:36:14;92919.44;;;1.53;100.00
40592;BME280;26301;42.832;23.918;2022-12-07T05:38:40;92980.28;;;1.97;100.00
40592;BME280;26301;42.832;23.918;2022-12-07T05:41:07;92989.47;;;1.98;100.00
40592;BME280;26301;42.832;23.918;2022-12-07T05:43:33;92973.00;;;1.94;100.00
40592;BME280;26301;42.832;23.918;2022-12-07T05:45:58;92970.84;;;1.98;100.00
40592;BME280;26301;42.832;23.918;2022-12-07T05:48:25;92881.22;;;1.46;100.00
40592;BME280;26301;42.832;23.918;2022-12-07T05:50:52;92981.78;;;2.20;100.00
40592;BME280;26301;42.832;23.918;2022-12-07T05:53:18;92892.94;;;1.69;100.00
40592;BME280;26301;42.832;23.918;2022-12-07T05:55:44;92883.50;;;1.63;100.00
40592;BME280;26301;42.832;23.918;2022-12-07T05:58:10;92944.00;;;1.95;100.00
40592;BME280;26301;42.832;23.918;2022-12-07T06:00:55;92959.13;;;2.03;100.00
40592;BME280;26301;42.832;23.918;2022-12-07T06:03:20;92963.06;;;2.06;100.00
40592;BME280;26301;42.832;23.918;2022-12-07T06:05:46;92960.94;;;2.10;100.00
40592;BME280;26301;42.832;23.918;2022-12-07T06:08:12;92970.19;;;2.11;100.00
40592;BME280;26301;42.832;23.918;2022-12-07T06:10:40;92948.34;;;2.01;100.00
40592;BME280;26301;42.832;23.918;2022-12-07T06:13:06;92916.94;;;1.88;100.00
40592;BME280;26301;42.832;23.918;2022-12-07T06:15:31;92974.16;;;2.20;100.00
40592;BME280;26301;42.832;23.918;2022-12-07T06:17:57;92977.09;;;2.23;100.00
40592;BME280;26301;42.832;23.918;2022-12-07T06:20:22;92952.91;;;2.13;100.00
40592;BME280;26301;42.832;23.918;2022-12-07T06:22:48;92963.97;;;2.26;100.00
40592;BME280;26301;42.832;23.918;2022-12-07T06:25:14;92961.84;;;2.30;100.00
40592;BME280;26301;42.832;23.918;2022-12-07T06:27:40;92946.66;;;2.15;100.00
40592;BME280;26301;42.832;23.918;2022-12-07T06:30:06;92953.41;;;2.29;100.00
40592;BME280;26301;42.832;23.918;2022-12-07T06:32:36;92952.41;;;2.24;100.00
40592;BME280;26301;42.832;23.918;2022-12-07T06:35:03;92967.19;;;2.42;100.00
40592;BME280;26301;42.832;23.918;2022-12-07T06:37:29;92963.44;;;2.38;100.00
40592;BME280;26301;42.832;23.918;2022-12-07T06:39:55;92938.63;;;2.18;100.00
40592;BME280;26301;42.832;23.918;2022-12-07T06:42:21;92974.47;;;2.45;100.00
40592;BME280;26301;42.832;23.918;2022-12-07T06:44:47;92967.59;;;2.45;100.00
40592;BME280;26301;42.832;23.918;2022-12-07T06:47:12;92971.75;;;2.53;100.00
40592;BME280;26301;42.832;23.918;2022-12-07T06:49:38;92971.41;;;2.63;100.00
40592;BME280;26301;42.832;23.918;2022-12-07T06:52:04;92969.63;;;2.70;100.00
40592;BME280;26301;42.832;23.918;2022-12-07T06:54:31;92946.44;;;2.58;100.00
40592;BME280;26301;42.832;23.918;2022-12-07T06:56:56;92975.19;;;2.80;100.00
40592;BME280;26301;42.832;23.918;2022-12-07T06:59:22;92985.41;;;2.87;100.00
40592;BME280;26301;42.832;23.918;2022-12-07T07:01:48;92974.59;;;2.85;100.00
40592;BME280;26301;42.832;23.918;2022-12-07T07:04:13;92981.88;;;2.94;100.00
40592;BME280;26301;42.832;23.918;2022-12-07T07:06:39;92986.19;;;2.94;100.00
40592;BME280;26301;42.832;23.918;2022-12-07T07:09:04;92955.75;;;2.86;100.00
40592;BME280;26301;42.832;23.918;2022-12-07T07:11:30;92968.56;;;3.06;100.00
40592;BME280;26301;42.832;23.918;2022-12-07T07:13:55;92972.13;;;3.18;100.00
40592;BME280;26301;42.832;23.918;2022-12-07T07:16:23;92948.16;;;3.06;100.00
40592;BME280;26301;42.832;23.918;2022-12-07T07:18:49;92990.44;;;3.41;100.00
40592;BME280;26301;42.832;23.918;2022-12-07T07:21:15;92982.78;;;3.48;100.00
40592;BME280;26301;42.832;23.918;2022-12-07T07:23:40;92982.97;;;3.60;100.00
40592;BME280;26301;42.832;23.918;2022-12-07T07:26:06;92993.22;;;3.73;100.00
40592;BME280;26301;42.832;23.918;2022-12-07T07:28:32;92979.03;;;3.84;100.00
40592;BME280;26301;42.832;23.918;2022-12-07T07:30:57;92954.91;;;3.73;100.00
40592;BME280;26301;42.832;23.918;2022-12-07T07:33:23;92958.81;;;3.89;100.00
40592;BME280;26301;42.832;23.918;2022-12-07T07:35:48;92995.91;;;4.25;100.00
40592;BME280;26301;42.832;23.918;2022-12-07T07:38:14;92991.38;;;4.27;100.00
40592;BME280;26301;42.832;23.918;2022-12-07T07:40:40;92963.66;;;4.17;100.00
40592;BME280;26301;42.832;23.918;2022-12-07T07:43:06;92987.22;;;4.39;100.00
40592;BME280;26301;42.832;23.918;2022-12-07T07:45:31;92991.72;;;4.44;100.00
40592;BME280;26301;42.832;23.918;2022-12-07T07:47:57;92968.75;;;4.37;100.00
40592;BME280;26301;42.832;23.918;2022-12-07T07:50:23;92968.50;;;4.52;100.00
40592;BME280;26301;42.832;23.918;2022-12-07T07:52:48;92985.75;;;4.63;100.00
40592;BME280;26301;42.832;23.918;2022-12-07T07:55:14;92950.03;;;4.43;100.00
40592;BME280;26301;42.832;23.918;2022-12-07T07:57:40;92993.00;;;4.79;100.00
40592;BME280;26301;42.832;23.918;2022-12-07T08:00:11;92974.47;;;4.84;100.00
40592;BME280;26301;42.832;23.918;2022-12-07T08:02:37;92986.44;;;4.97;100.00
40592;BME280;26301;42.832;23.918;2022-12-07T08:05:03;92972.69;;;4.91;100.00
40592;BME280;26301;42.832;23.918;2022-12-07T08:07:29;92949.59;;;4.98;100.00
40592;BME280;26301;42.832;23.918;2022-12-07T08:09:55;92996.13;;;5.26;100.00
40592;BME280;26301;42.832;23.918;2022-12-07T08:12:20;92988.19;;;5.35;100.00
40592;BME280;26301;42.832;23.918;2022-12-07T08:14:46;92977.91;;;5.41;100.00
40592;BME280;26301;42.832;23.918;2022-12-07T08:17:12;92972.06;;;5.59;100.00
40592;BME280;26301;42.832;23.918;2022-12-07T08:19:37;92982.66;;;5.69;100.00
40592;BME280;26301;42.832;23.918;2022-12-07T08:22:03;92903.00;;;5.21;100.00
40592;BME280;26301;42.832;23.918;2022-12-07T08:24:29;92956.38;;;5.74;100.00
40592;BME280;26301;42.832;23.918;2022-12-07T08:26:54;92972.63;;;5.93;100.00
40592;BME280;26301;42.832;23.918;2022-12-07T08:29:20;92977.94;;;6.16;100.00
40592;BME280;26301;42.832;23.918;2022-12-07T08:31:46;92980.31;;;6.36;100.00
40592;BME280;26301;42.832;23.918;2022-12-07T08:34:12;92945.53;;;6.22;100.00
40592;BME280;26301;42.832;23.918;2022-12-07T08:36:38;92974.13;;;6.44;100.00
40592;BME280;26301;42.832;23.918;2022-12-07T08:39:03;92981.25;;;6.60;100.00
40592;BME280;26301;42.832;23.918;2022-12-07T08:41:29;92967.72;;;6.72;100.00
40592;BME280;26301;42.832;23.918;2022-12-07T08:43:55;92958.91;;;6.79;100.00
40592;BME280;26301;42.832;23.918;2022-12-07T08:48:55;92967.41;;;6.98;100.00
40592;BME280;26301;42.832;23.918;2022-12-07T08:51:23;92967.44;;;7.10;100.00
40592;BME280;26301;42.832;23.918;2022-12-07T08:53:52;92946.22;;;7.15;100.00
40592;BME280;26301;42.832;23.918;2022-12-07T08:56:19;92963.47;;;7.26;100.00
40592;BME280;26301;42.832;23.918;2022-12-07T08:58:45;92960.16;;;7.37;99.68
40592;BME280;26301;42.832;23.918;2022-12-07T09:01:11;92947.28;;;7.25;91.81
40592;BME280;26301;42.832;23.918;2022-12-07T09:03:37;92962.97;;;7.47;91.88
40592;BME280;26301;42.832;23.918;2022-12-07T09:06:03;92931.06;;;7.25;88.88
40592;BME280;26301;42.832;23.918;2022-12-07T09:08:33;92929.50;;;7.24;92.38
40592;BME280;26301;42.832;23.918;2022-12-07T09:11:00;92936.25;;;7.37;91.32
40592;BME280;26301;42.832;23.918;2022-12-07T09:13:25;92947.13;;;7.50;90.39
40592;BME280;26301;42.832;23.918;2022-12-07T09:15:52;92944.22;;;7.47;92.05
40592;BME280;26301;42.832;23.918;2022-12-07T09:18:17;92948.22;;;7.54;92.96
40592;BME280;26301;42.832;23.918;2022-12-07T09:20:43;92949.59;;;7.57;91.88
40592;BME280;26301;42.832;23.918;2022-12-07T09:23:09;92925.31;;;7.41;91.81
40592;BME280;26301;42.832;23.918;2022-12-07T09:25:34;92950.72;;;7.61;88.36
40592;BME280;26301;42.832;23.918;2022-12-07T09:28:00;92933.72;;;7.60;88.20
40592;BME280;26301;42.832;23.918;2022-12-07T09:30:26;92931.84;;;7.67;88.98
40592;BME280;26301;42.832;23.918;2022-12-07T09:32:56;92905.69;;;7.59;87.38
40592;BME280;26301;42.832;23.918;2022-12-07T09:35:23;92942.47;;;7.83;86.00
40592;BME280;26301;42.832;23.918;2022-12-07T09:37:49;92935.09;;;7.74;84.24
40592;BME280;26301;42.832;23.918;2022-12-07T09:40:16;92937.88;;;7.73;83.95
40592;BME280;26301;42.832;23.918;2022-12-07T09:42:45;92920.19;;;7.53;85.35
40592;BME280;26301;42.832;23.918;2022-12-07T09:45:25;92930.25;;;7.66;83.69
40592;BME280;26301;42.832;23.918;2022-12-07T09:47:52;92911.47;;;7.54;83.78
40592;BME280;26301;42.832;23.918;2022-12-07T09:50:24;92914.94;;;7.60;86.07
40592;BME280;26301;42.832;23.918;2022-12-07T09:52:51;92929.06;;;7.81;87.02
40592;BME280;26301;42.832;23.918;2022-12-07T09:55:27;92926.38;;;7.87;83.55
40592;BME280;26301;42.832;23.918;2022-12-07T09:57:53;92906.25;;;7.84;84.78
40592;BME280;26301;42.832;23.918;2022-12-07T10:00:21;92914.84;;;8.01;85.87
40592;BME280;26301;42.832;23.918;2022-12-07T10:02:58;92902.66;;;7.97;86.30
40592;BME280;26301;42.832;23.918;2022-12-07T10:05:34;92917.75;;;8.17;84.42
40592;BME280;26301;42.832;23.918;2022-12-07T10:08:00;92913.72;;;8.21;84.21
40592;BME280;26301;42.832;23.918;2022-12-07T10:10:31;92922.25;;;8.21;83.84
40592;BME280;26301;42.832;23.918;2022-12-07T10:13:05;92913.63;;;8.16;83.93
40592;BME280;26301;42.832;23.918;2022-12-07T10:15:56;92915.75;;;8.31;83.73
40592;BME280;26301;42.832;23.918;2022-12-07T10:21:01;92903.66;;;8.43;86.30
40592;BME280;26301;42.832;23.918;2022-12-07T10:23:28;92867.16;;;8.34;84.41
40592;BME280;26301;42.832;23.918;2022-12-07T10:25:54;92900.03;;;8.56;79.89
40592;BME280;26301;42.832;23.918;2022-12-07T10:28:21;92894.53;;;8.64;79.20
40592;BME280;26301;42.832;23.918;2022-12-07T10:30:59;92884.31;;;8.69;78.99
40592;BME280;26301;42.832;23.918;2022-12-07T10:33:38;92863.41;;;8.65;81.68
40592;BME280;26301;42.832;23.918;2022-12-07T10:36:20;92886.19;;;8.85;81.06
40592;BME280;26301;42.832;23.918;2022-12-07T10:38:49;92871.53;;;8.74;77.64
40592;BME280;26301;42.832;23.918;2022-12-07T10:41:16;92855.94;;;8.64;76.79
40592;BME280;26301;42.832;23.918;2022-12-07T10:43:50;92871.72;;;8.84;77.87
40592;BME280;26301;42.832;23.918;2022-12-07T10:51:58;92859.31;;;8.81;75.65
40592;BME280;26301;42.832;23.918;2022-12-07T10:54:57;92883.81;;;9.12;73.54
40592;BME280;26301;42.832;23.918;2022-12-07T10:57:51;92877.66;;;9.13;74.68
40592;BME280;26301;42.832;23.918;2022-12-07T11:00:30;92871.94;;;9.11;74.00
40592;BME280;26301;42.832;23.918;2022-12-07T11:14:44;92856.09;;;9.20;66.26
40592;BME280;26301;42.832;23.918;2022-12-07T11:17:44;92855.41;;;9.24;70.29
40592;BME280;26301;42.832;23.918;2022-12-07T11:26:22;92850.31;;;9.29;68.64
40592;BME280;26301;42.832;23.918;2022-12-07T11:31:50;92853.38;;;9.43;67.90
40592;BME280;26301;42.832;23.918;2022-12-07T11:37:18;92777.78;;;9.04;71.49
40592;BME280;26301;42.832;23.918;2022-12-07T11:39:54;92857.06;;;9.64;68.51
40592;BME280;26301;42.832;23.918;2022-12-07T11:42:33;92826.75;;;9.54;68.28
40592;BME280;26301;42.832;23.918;2022-12-07T11:45:16;92805.56;;;9.35;66.60
40592;BME280;26301;42.832;23.918;2022-12-07T11:50:41;92828.75;;;9.69;67.06
40592;BME280;26301;42.832;23.918;2022-12-07T11:53:17;92824.84;;;9.67;68.18
40592;BME280;26301;42.832;23.918;2022-12-07T11:56:14;92729.84;;;9.20;64.24
40592;BME280;26301;42.832;23.918;2022-12-07T12:06:35;92811.44;;;9.87;67.17
40592;BME280;26301;42.832;23.918;2022-12-07T12:09:24;92810.81;;;9.96;65.13
40592;BME280;26301;42.832;23.918;2022-12-07T12:26:01;92786.66;;;9.64;68.30
40592;BME280;26301;42.832;23.918;2022-12-07T12:28:34;92798.28;;;9.66;68.27
40592;BME280;26301;42.832;23.918;2022-12-07T12:33:43;92774.72;;;9.57;66.51
40592;BME280;26301;42.832;23.918;2022-12-07T12:38:50;92799.94;;;9.72;67.73
40592;BME280;26301;42.832;23.918;2022-12-07T12:44:02;92788.28;;;9.70;67.60
40592;BME280;26301;42.832;23.918;2022-12-07T12:51:57;92793.81;;;9.78;64.28
40592;BME280;26301;42.832;23.918;2022-12-07T12:54:30;92804.53;;;9.70;68.82
40592;BME280;26301;42.832;23.918;2022-12-07T12:57:13;92778.38;;;9.61;67.57
40592;BME280;26301;42.832;23.918;2022-12-07T13:02:25;92790.00;;;9.64;67.58
40592;BME280;26301;42.832;23.918;2022-12-07T13:10:22;92801.00;;;9.59;76.07
40592;BME280;26301;42.832;23.918;2022-12-07T13:13:08;92801.66;;;9.67;72.74
40592;BME280;26301;42.832;23.918;2022-12-07T13:21:00;92792.75;;;9.57;69.03
40592;BME280;26301;42.832;23.918;2022-12-07T13:26:41;92781.13;;;9.38;68.58
40592;BME280;26301;42.832;23.918;2022-12-07T13:29:19;92799.25;;;9.43;70.46
40592;BME280;26301;42.832;23.918;2022-12-07T13:31:54;92778.41;;;9.28;72.30
40592;BME280;26301;42.832;23.918;2022-12-07T13:34:37;92756.94;;;9.05;71.39
40592;BME280;26301;42.832;23.918;2022-12-07T13:37:30;92760.91;;;8.96;73.87
40592;BME280;26301;42.832;23.918;2022-12-07T13:40:18;92780.28;;;9.15;70.83
40592;BME280;26301;42.832;23.918;2022-12-07T13:42:45;92804.34;;;9.21;69.79
40592;BME280;26301;42.832;23.918;2022-12-07T13:45:36;92805.41;;;9.08;72.59
40592;BME280;26301;42.832;23.918;2022-12-07T13:50:52;92795.09;;;8.91;73.69
40592;BME280;26301;42.832;23.918;2022-12-07T13:53:18;92799.59;;;8.84;77.13
40592;BME280;26301;42.832;23.918;2022-12-07T13:55:45;92794.31;;;8.74;78.74
40592;BME280;26301;42.832;23.918;2022-12-07T13:58:13;92761.53;;;8.41;79.62
40592;BME280;26301;42.832;23.918;2022-12-07T14:00:40;92797.22;;;8.49;81.15
40592;BME280;26301;42.832;23.918;2022-12-07T14:03:28;92800.41;;;8.39;81.62
40592;BME280;26301;42.832;23.918;2022-12-07T14:06:20;92791.81;;;8.22;82.46
40592;BME280;26301;42.832;23.918;2022-12-07T14:08:47;92791.59;;;8.12;82.16
40592;BME280;26301;42.832;23.918;2022-12-07T14:11:18;92766.28;;;7.92;82.61
40592;BME280;26301;42.832;23.918;2022-12-07T14:16:28;92777.50;;;7.62;84.45
40592;BME280;26301;42.832;23.918;2022-12-07T14:18:55;92782.75;;;7.55;83.79
40592;BME280;26301;42.832;23.918;2022-12-07T14:21:24;92800.84;;;7.61;84.34
40592;BME280;26301;42.832;23.918;2022-12-07T14:24:17;92809.91;;;7.51;85.18
40592;BME280;26301;42.832;23.918;2022-12-07T14:26:45;92796.06;;;7.41;85.71
40592;BME280;26301;42.832;23.918;2022-12-07T14:31:53;92786.06;;;6.97;86.15
40592;BME280;26301;42.832;23.918;2022-12-07T14:34:20;92778.88;;;6.76;86.58
40592;BME280;26301;42.832;23.918;2022-12-07T14:36:46;92808.13;;;6.75;87.33
40592;BME280;26301;42.832;23.918;2022-12-07T14:39:12;92806.09;;;6.65;87.53
40592;BME280;26301;42.832;23.918;2022-12-07T14:41:37;92779.34;;;6.43;87.54
40592;BME280;26301;42.832;23.918;2022-12-07T14:44:22;92804.91;;;6.49;87.51
40592;BME280;26301;42.832;23.918;2022-12-07T14:46:49;92798.88;;;6.44;87.64
40592;BME280;26301;42.832;23.918;2022-12-07T14:49:16;92799.53;;;6.39;87.71
40592;BME280;26301;42.832;23.918;2022-12-07T14:51:42;92801.97;;;6.34;87.42
40592;BME280;26301;42.832;23.918;2022-12-07T14:54:17;92800.41;;;6.33;87.38
40592;BME280;26301;42.832;23.918;2022-12-07T14:56:44;92800.13;;;6.23;88.48
40592;BME280;26301;42.832;23.918;2022-12-07T14:59:11;92793.19;;;6.11;88.36
40592;BME280;26301;42.832;23.918;2022-12-07T15:01:37;92797.09;;;5.95;88.67
40592;BME280;26301;42.832;23.918;2022-12-07T15:04:03;92799.34;;;5.67;90.49
40592;BME280;26301;42.832;23.918;2022-12-07T15:06:29;92804.38;;;5.55;92.08
40592;BME280;26301;42.832;23.918;2022-12-07T15:08:55;92802.69;;;5.49;91.49
40592;BME280;26301;42.832;23.918;2022-12-07T15:11:20;92814.47;;;5.50;91.58
40592;BME280;26301;42.832;23.918;2022-12-07T15:13:46;92811.13;;;5.49;91.13
40592;BME280;26301;42.832;23.918;2022-12-07T15:16:30;92820.41;;;5.50;90.83
40592;BME280;26301;42.832;23.918;2022-12-07T15:18:56;92791.28;;;5.26;91.41